LDDU

Dubrovnik Airport

Dubrovnik, Croatia
TAF LDDU 210525Z 2106/2206 09006KT CAVOK TX30/2113Z TN21/2203Z BECMG 2107/2109 16010KT BECMG 2111/2113 22007KT BECMG 2118/2120 08008KT
Issued Valid From Valid To
Jul-21 @ 05:25 UTC
(4 hours ago)
Jul-21 @ 06:00 UTC
(4 hours ago)
Jul-22 @ 06:00 UTC
(in 20 hours)
Expired Click to View Jul-21 @ 06:00 to Jul-21 @ 07:00
TAF LDDU 210525Z 2106/2206 09006KT CAVOK TX30/2113Z TN21/2203Z
Wind Visibility Clouds
90° at 6 knots 10,000+ meters
  • No significant clouds
Becoming Jul-21 @ 07:00 to Jul-21 @ 11:00
BECMG 2107/2109 16010KT
Wind Visibility Clouds
160° at 10 knots 10,000+ meters
  • No significant clouds
Becoming Jul-21 @ 11:00 to Jul-21 @ 18:00
BECMG 2111/2113 22007KT
Wind Visibility Clouds
220° at 7 knots 10,000+ meters
  • No significant clouds
Becoming Jul-21 @ 18:00 to Jul-22 @ 06:00
BECMG 2118/2120 08008KT
Wind Visibility Clouds
80° at 8 knots 10,000+ meters
  • No significant clouds
TAF LDDU 210525Z 2106/2206 09006KT CAVOK TX30/2113Z TN21/2203Z BECMG 2107/2109 16010KT BECMG 2111/2113 22007KT BECMG 2118/2120 08008KT
Issued Jul-21 @ 05:25 UTC
(4 hours ago)
Valid From Jul-21 @ 06:00 UTC
(4 hours ago)
Valid To Jul-22 @ 06:00 UTC
(in 20 hours)
Jul-21 @ 06:00 - Jul-21 @ 07:00
Wind Visibility
90° at 6 knots 10,000+ meters
Clouds
  • No significant clouds
Becoming Jul-21 @ 07:00 - Jul-21 @ 11:00
Wind Visibility
160° at 10 knots 10,000+ meters
Clouds
  • No significant clouds
Becoming Jul-21 @ 11:00 - Jul-21 @ 18:00
Wind Visibility
220° at 7 knots 10,000+ meters
Clouds
  • No significant clouds
Becoming Jul-21 @ 18:00 - Jul-22 @ 06:00
Wind Visibility
80° at 8 knots 10,000+ meters
Clouds
  • No significant clouds